createdAt,value
2023-03-29T00:02:09.051Z,97625.78
2023-03-29T00:04:35.612Z,97615.78
2023-03-29T00:07:02.089Z,97614.56
2023-03-29T00:09:42.658Z,97618.41
2023-03-29T00:12:09.192Z,97625.94
2023-03-29T00:15:23.665Z,97628.31
2023-03-29T00:17:22.916Z,97637.38
2023-03-29T00:19:49.315Z,97647.69
2023-03-29T00:22:15.752Z,97640.75
2023-03-29T00:24:42.132Z,97633.34
2023-03-29T00:27:08.607Z,97644.09
2023-03-29T00:29:36.085Z,97651.09
2023-03-29T00:32:02.496Z,97654.31
2023-03-29T00:34:28.953Z,97681.44
2023-03-29T00:36:55.358Z,97712.78
2023-03-29T00:39:21.859Z,97710.69
2023-03-29T00:41:50.686Z,97687.69
2023-03-29T00:44:18.164Z,97701.97
2023-03-29T00:46:44.692Z,97681.16
2023-03-29T00:49:11.236Z,97661.81
2023-03-29T00:51:37.631Z,97651.75
2023-03-29T00:54:10.196Z,97636.09
2023-03-29T00:56:36.671Z,97641.56
2023-03-29T00:59:03.065Z,97643.66
2023-03-29T01:01:29.479Z,97648.47
2023-03-29T01:03:55.943Z,97650.91
2023-03-29T01:06:22.356Z,97650.59
2023-03-29T01:08:48.780Z,97648.34
2023-03-29T01:11:15.195Z,97646.69
2023-03-29T01:13:41.670Z,97605.31
2023-03-29T01:16:08.112Z,97590.84
2023-03-29T01:18:34.503Z,97588.63
2023-03-29T01:21:01.088Z,97576.44
2023-03-29T01:23:27.607Z,97581.41
2023-03-29T01:25:54.008Z,97580.09
2023-03-29T01:28:20.456Z,97603.91
2023-03-29T01:30:46.869Z,97591.31
2023-03-29T01:33:13.252Z,97587.00
2023-03-29T01:35:39.689Z,97575.19
2023-03-29T01:38:08.540Z,97585.38
2023-03-29T01:40:34.945Z,97581.41
2023-03-29T01:43:01.367Z,97564.00
2023-03-29T01:45:27.781Z,97553.19
2023-03-29T01:47:54.342Z,97552.78
2023-03-29T01:50:20.702Z,97562.28
2023-03-29T01:52:47.172Z,97552.53
2023-03-29T01:55:13.574Z,97558.94
2023-03-29T01:57:40.005Z,97546.41
2023-03-29T02:00:06.418Z,97540.09
2023-03-29T02:02:32.944Z,97532.34
2023-03-29T02:04:59.435Z,97528.28
2023-03-29T02:07:25.860Z,97526.00
2023-03-29T02:09:52.276Z,97537.19
2023-03-29T02:12:18.723Z,97575.88
2023-03-29T02:14:45.135Z,97617.53
2023-03-29T02:17:11.599Z,97631.75
2023-03-29T02:19:38.118Z,97650.63
2023-03-29T02:22:06.608Z,97664.72
2023-03-29T02:24:33.043Z,97655.03
2023-03-29T02:26:59.420Z,97656.31
2023-03-29T02:29:25.786Z,97651.34
2023-03-29T02:31:52.185Z,97632.47
2023-03-29T02:34:18.568Z,97626.19
2023-03-29T02:36:45.010Z,97608.66
2023-03-29T02:39:11.426Z,97593.53
2023-03-29T02:41:37.834Z,97571.69
2023-03-29T02:44:04.243Z,97567.81
2023-03-29T02:46:30.765Z,97594.00
2023-03-29T02:48:57.153Z,97592.59
2023-03-29T02:51:23.555Z,97605.94
2023-03-29T02:53:50.050Z,97612.84
2023-03-29T02:56:20.710Z,97635.63
2023-03-29T02:58:47.975Z,97644.91
2023-03-29T03:01:14.442Z,97633.28
2023-03-29T03:03:40.954Z,97631.06
2023-03-29T03:06:07.508Z,97647.75
2023-03-29T03:08:34.135Z,97638.88
2023-03-29T03:11:00.824Z,97635.78
2023-03-29T03:13:27.531Z,97618.44
2023-03-29T03:15:53.930Z,97613.44
2023-03-29T03:18:20.413Z,97639.97
2023-03-29T03:20:46.823Z,97655.03
2023-03-29T03:23:13.225Z,97681.38
2023-03-29T03:25:39.644Z,97683.47
2023-03-29T03:28:06.035Z,97664.22
2023-03-29T03:30:32.516Z,97649.56
2023-03-29T03:32:59.020Z,97640.88
2023-03-29T03:35:26.593Z,97626.19
2023-03-29T03:37:52.965Z,97611.22
2023-03-29T03:40:19.381Z,97608.72
2023-03-29T03:42:45.765Z,97605.19
2023-03-29T03:45:12.270Z,97586.94
2023-03-29T03:47:38.745Z,97590.50
2023-03-29T03:50:05.250Z,97616.59
2023-03-29T03:52:31.592Z,97634.78
2023-03-29T03:54:57.970Z,97648.69
2023-03-29T03:57:24.373Z,97657.53
2023-03-29T03:59:50.799Z,97643.03
2023-03-29T04:02:17.197Z,97615.28
2023-03-29T04:04:43.681Z,97592.06
2023-03-29T04:07:10.040Z,97581.09
2023-03-29T04:09:36.372Z,97579.22
2023-03-29T04:12:02.696Z,97585.25
2023-03-29T04:14:29.045Z,97582.28
2023-03-29T04:16:55.437Z,97580.91
2023-03-29T04:19:21.983Z,97581.91
2023-03-29T04:21:48.454Z,97573.84
2023-03-29T04:24:14.844Z,97566.03
2023-03-29T04:26:41.180Z,97552.38
2023-03-29T04:29:07.559Z,97539.13
2023-03-29T04:31:33.952Z,97523.56
2023-03-29T04:34:02.796Z,97534.16
2023-03-29T04:36:29.159Z,97539.41
2023-03-29T04:38:55.500Z,97548.59
2023-03-29T04:41:21.968Z,97539.00
2023-03-29T04:43:48.397Z,97552.44
2023-03-29T04:46:14.876Z,97555.75
2023-03-29T04:48:41.337Z,97539.25
2023-03-29T04:51:07.766Z,97522.53
2023-03-29T04:53:34.136Z,97510.44
2023-03-29T04:56:00.522Z,97512.81
2023-03-29T04:58:30.731Z,97517.72
2023-03-29T05:00:58.880Z,97518.66
2023-03-29T05:03:25.261Z,97537.69
2023-03-29T05:05:51.646Z,97548.00
2023-03-29T05:08:20.787Z,97549.09
2023-03-29T05:10:47.170Z,97558.06
2023-03-29T05:13:13.612Z,97559.66
2023-03-29T05:15:41.281Z,97555.75
2023-03-29T05:18:07.825Z,97549.22
2023-03-29T05:20:34.316Z,97539.75
2023-03-29T05:23:00.777Z,97545.53
2023-03-29T05:25:27.141Z,97543.25
2023-03-29T05:27:53.515Z,97552.78
2023-03-29T05:30:19.948Z,97576.78
2023-03-29T05:32:46.695Z,97575.38
2023-03-29T05:35:13.126Z,97590.78
2023-03-29T05:37:39.502Z,97588.16
2023-03-29T05:40:06.449Z,97582.22
2023-03-29T05:42:32.886Z,97589.66
2023-03-29T05:44:59.279Z,97583.16
2023-03-29T05:47:25.780Z,97586.75
2023-03-29T05:49:52.301Z,97588.00
2023-03-29T05:52:18.652Z,97594.41
2023-03-29T05:54:45.063Z,97583.22
2023-03-29T05:57:11.551Z,97595.63
2023-03-29T05:59:38.003Z,97594.25
2023-03-29T06:02:04.367Z,97591.88
2023-03-29T06:04:31.067Z,97584.63
2023-03-29T06:06:57.490Z,97574.75
2023-03-29T06:09:23.811Z,97575.97
2023-03-29T06:11:50.142Z,97588.53
2023-03-29T06:14:16.489Z,97592.59
2023-03-29T06:16:43.040Z,97601.38
2023-03-29T06:19:09.371Z,97600.59
2023-03-29T06:21:35.714Z,97601.22
2023-03-29T06:24:02.044Z,97608.19
2023-03-29T06:26:28.474Z,97608.06
2023-03-29T06:28:54.801Z,97595.63
2023-03-29T06:31:21.296Z,97598.97
2023-03-29T06:33:47.785Z,97595.72
2023-03-29T06:36:14.206Z,97603.84
2023-03-29T06:38:40.624Z,97611.50
2023-03-29T06:41:07.019Z,97617.53
2023-03-29T06:43:33.551Z,97609.69
2023-03-29T06:46:00.029Z,97617.91
2023-03-29T06:48:26.769Z,97611.56
2023-03-29T06:51:03.277Z,97621.09
2023-03-29T06:53:29.780Z,97617.16
2023-03-29T06:55:57.476Z,97630.41
2023-03-29T06:58:24.022Z,97636.66
2023-03-29T07:00:50.514Z,97626.94
2023-03-29T07:03:17.301Z,97628.22
2023-03-29T07:05:45.518Z,97630.47
2023-03-29T07:08:11.876Z,97632.88
2023-03-29T07:10:38.393Z,97633.81
2023-03-29T07:13:04.956Z,97628.03
2023-03-29T07:15:31.411Z,97651.44
2023-03-29T07:17:58.071Z,97637.63
2023-03-29T07:20:24.529Z,97628.13
2023-03-29T07:22:51.577Z,97636.22
2023-03-29T07:25:18.372Z,97621.66
2023-03-29T07:27:44.828Z,97616.13
2023-03-29T07:30:11.409Z,97632.28
2023-03-29T07:32:37.988Z,97636.59
2023-03-29T07:35:04.526Z,97626.44
2023-03-29T07:37:30.960Z,97632.03
2023-03-29T07:39:57.436Z,97643.63
2023-03-29T07:42:23.796Z,97633.91
2023-03-29T07:44:50.220Z,97640.34
2023-03-29T07:47:16.632Z,97654.44
2023-03-29T07:49:42.974Z,97671.03
2023-03-29T07:52:09.348Z,97663.56
2023-03-29T07:54:35.779Z,97665.66
2023-03-29T07:57:03.991Z,97670.63
2023-03-29T07:59:38.732Z,97666.31
2023-03-29T08:02:05.559Z,97669.41
2023-03-29T08:04:32.099Z,97658.91
2023-03-29T08:06:58.531Z,97651.13
2023-03-29T08:09:24.860Z,97648.22
2023-03-29T08:11:51.234Z,97643.50
2023-03-29T08:14:17.619Z,97641.72
2023-03-29T08:16:44.088Z,97641.72
2023-03-29T08:19:10.510Z,97643.38
2023-03-29T08:21:36.933Z,97652.53
2023-03-29T08:24:03.381Z,97652.75
2023-03-29T08:26:29.812Z,97667.88
2023-03-29T08:28:56.183Z,97666.59
2023-03-29T08:31:22.681Z,97679.69
2023-03-29T08:33:49.131Z,97671.66
2023-03-29T08:36:17.996Z,97675.41
2023-03-29T08:38:44.416Z,97683.88
2023-03-29T08:41:10.784Z,97688.69
2023-03-29T08:43:37.189Z,97699.03
2023-03-29T08:46:03.671Z,97692.38
2023-03-29T08:48:30.077Z,97699.44
2023-03-29T08:50:56.878Z,97692.19
2023-03-29T08:53:23.273Z,97669.78
2023-03-29T08:55:49.701Z,97669.16
2023-03-29T08:58:16.173Z,97650.31
2023-03-29T09:03:23.858Z,97671.84
2023-03-29T09:05:50.321Z,97685.78
2023-03-29T09:08:16.782Z,97684.94
2023-03-29T09:10:43.256Z,97679.38
2023-03-29T09:13:09.824Z,97672.16
2023-03-29T09:15:36.301Z,97665.31
2023-03-29T09:18:02.860Z,97667.53
2023-03-29T09:20:29.258Z,97662.16
2023-03-29T09:22:55.705Z,97675.44
2023-03-29T09:25:22.138Z,97669.28
2023-03-29T09:27:48.608Z,97666.59
2023-03-29T09:30:15.246Z,97664.53
2023-03-29T09:32:41.689Z,97670.16
2023-03-29T09:35:08.155Z,97668.25
2023-03-29T09:37:34.584Z,97662.88
2023-03-29T09:40:02.076Z,97668.06
2023-03-29T09:42:30.261Z,97661.44
2023-03-29T09:44:58.010Z,97657.94
2023-03-29T09:47:24.440Z,97662.91
2023-03-29T09:49:50.866Z,97655.63
2023-03-29T09:52:17.331Z,97650.44
2023-03-29T09:54:43.844Z,97654.19
2023-03-29T09:57:10.286Z,97659.78
2023-03-29T09:59:36.802Z,97663.31
2023-03-29T10:02:03.262Z,97667.25
2023-03-29T10:04:35.334Z,97648.75
2023-03-29T10:07:01.753Z,97656.47
2023-03-29T10:09:28.144Z,97647.91
2023-03-29T10:11:54.502Z,97665.19
2023-03-29T10:14:21.643Z,97659.34
2023-03-29T10:16:48.120Z,97646.84
2023-03-29T10:19:14.622Z,97646.44
2023-03-29T10:21:41.058Z,97642.28
2023-03-29T10:24:07.478Z,97643.34
2023-03-29T10:26:34.953Z,97641.06
2023-03-29T10:29:01.497Z,97641.66
2023-03-29T10:31:27.924Z,97631.53
2023-03-29T10:33:54.358Z,97632.97
2023-03-29T10:36:20.793Z,97646.47
2023-03-29T10:38:47.172Z,97630.66
2023-03-29T10:41:13.640Z,97626.91
2023-03-29T10:43:40.008Z,97627.09
2023-03-29T10:46:06.462Z,97630.44
2023-03-29T10:48:32.915Z,97645.63
2023-03-29T10:50:59.459Z,97638.97
2023-03-29T10:53:25.997Z,97636.69
2023-03-29T10:55:52.364Z,97653.94
2023-03-29T10:58:18.793Z,97650.84
2023-03-29T11:00:45.188Z,97643.97
2023-03-29T11:03:13.111Z,97657.25
2023-03-29T11:05:41.688Z,97676.16
2023-03-29T11:08:08.100Z,97659.31
2023-03-29T11:10:34.753Z,97658.09
2023-03-29T11:13:01.189Z,97652.28
2023-03-29T11:15:27.616Z,97658.13
2023-03-29T11:17:54.108Z,97682.00
2023-03-29T11:20:20.528Z,97676.81
2023-03-29T11:22:46.900Z,97656.66
2023-03-29T11:25:13.239Z,97576.94
2023-03-29T11:27:39.640Z,97618.69
2023-03-29T11:30:06.015Z,97649.00
2023-03-29T11:32:32.414Z,97624.31
2023-03-29T11:37:49.666Z,97637.38
2023-03-29T11:40:17.347Z,97646.91
2023-03-29T11:42:43.761Z,97620.16
2023-03-29T11:48:02.706Z,97603.13
2023-03-29T11:50:37.933Z,97623.25
2023-03-29T11:53:04.375Z,97621.81
2023-03-29T11:55:30.955Z,97596.88
2023-03-29T11:57:57.464Z,97586.53
2023-03-29T12:00:23.847Z,97596.63
2023-03-29T12:02:50.359Z,97598.47
2023-03-29T12:05:16.845Z,97599.56
2023-03-29T12:07:43.473Z,97568.78
2023-03-29T12:10:09.920Z,97574.41
2023-03-29T12:12:36.805Z,97571.25
2023-03-29T12:15:03.279Z,97582.69
2023-03-29T12:17:29.774Z,97590.00
2023-03-29T12:19:56.213Z,97600.38
2023-03-29T12:22:22.675Z,97591.84
2023-03-29T12:24:49.145Z,97600.09
2023-03-29T12:27:15.574Z,97594.69
2023-03-29T12:29:42.034Z,97597.75
2023-03-29T12:32:08.486Z,97579.44
2023-03-29T12:34:35.058Z,97549.28
2023-03-29T12:37:02.641Z,97542.81
2023-03-29T12:39:29.114Z,97549.72
2023-03-29T12:41:55.615Z,97546.38
2023-03-29T12:44:22.133Z,97524.34
2023-03-29T12:46:48.756Z,97525.13
2023-03-29T12:49:15.412Z,97533.38
2023-03-29T12:51:41.849Z,97527.78
2023-03-29T12:54:08.273Z,97524.81
2023-03-29T12:56:34.672Z,97517.84
2023-03-29T12:59:01.148Z,97509.03
2023-03-29T13:01:27.688Z,97510.59
2023-03-29T13:03:58.174Z,97520.06
2023-03-29T13:06:24.953Z,97524.00
2023-03-29T13:08:51.356Z,97532.91
2023-03-29T13:11:17.943Z,97535.81
2023-03-29T13:13:48.239Z,97537.31
2023-03-29T13:16:14.809Z,97527.88
2023-03-29T13:18:41.283Z,97521.63
2023-03-29T13:21:07.763Z,97525.38
2023-03-29T13:23:34.238Z,97525.53
2023-03-29T13:26:00.750Z,97523.66
2023-03-29T13:28:27.364Z,97519.47
2023-03-29T13:30:54.054Z,97516.22
2023-03-29T13:33:20.505Z,97525.34
2023-03-29T13:35:47.027Z,97510.44
2023-03-29T13:38:13.555Z,97508.88
2023-03-29T13:40:39.902Z,97499.31
2023-03-29T13:43:06.537Z,97500.53
2023-03-29T13:48:23.386Z,97496.81
2023-03-29T13:50:49.903Z,97490.47
2023-03-29T13:53:16.293Z,97484.13
2023-03-29T13:55:42.778Z,97494.34
2023-03-29T13:58:09.186Z,97504.84
2023-03-29T14:03:21.807Z,97512.75
2023-03-29T14:05:48.279Z,97505.94
2023-03-29T14:08:22.632Z,97497.16
2023-03-29T14:10:48.997Z,97492.19
2023-03-29T14:13:15.386Z,97486.88
2023-03-29T14:15:41.865Z,97485.31
2023-03-29T14:18:08.292Z,97466.94
2023-03-29T14:20:34.835Z,97468.09
2023-03-29T14:23:01.426Z,97459.06
2023-03-29T14:25:27.944Z,97452.06
2023-03-29T14:27:54.724Z,97451.16
2023-03-29T14:30:27.291Z,97449.41
2023-03-29T14:32:53.786Z,97451.66
2023-03-29T14:35:20.285Z,97448.28
2023-03-29T14:37:46.712Z,97441.16
2023-03-29T14:40:13.117Z,97428.63
2023-03-29T14:42:39.585Z,97420.41
2023-03-29T14:45:05.965Z,97419.00
2023-03-29T14:47:32.413Z,97414.91
2023-03-29T14:49:58.880Z,97412.06
2023-03-29T14:52:25.678Z,97410.16
2023-03-29T14:54:54.228Z,97411.13
2023-03-29T14:57:20.779Z,97404.31
2023-03-29T14:59:47.554Z,97401.94
2023-03-29T15:02:14.042Z,97400.88
2023-03-29T15:04:40.521Z,97394.03
2023-03-29T15:07:06.930Z,97392.84
2023-03-29T15:09:33.385Z,97385.28
2023-03-29T15:11:59.795Z,97371.88
2023-03-29T15:14:26.235Z,97373.97
2023-03-29T15:16:52.640Z,97372.97
2023-03-29T15:19:19.113Z,97357.84
2023-03-29T15:21:45.549Z,97356.78
2023-03-29T15:24:12.096Z,97354.78
2023-03-29T15:26:38.494Z,97358.56
2023-03-29T15:29:04.976Z,97348.53
2023-03-29T15:31:31.392Z,97336.75
2023-03-29T15:33:57.845Z,97341.69
2023-03-29T15:36:24.503Z,97350.06
2023-03-29T15:38:51.017Z,97343.47
2023-03-29T15:41:17.335Z,97344.44
2023-03-29T15:43:44.737Z,97345.84
2023-03-29T15:46:12.415Z,97340.53
2023-03-29T15:48:38.896Z,97332.97
2023-03-29T15:51:06.967Z,97329.09
2023-03-29T15:53:33.591Z,97327.44
2023-03-29T15:56:00.179Z,97325.19
2023-03-29T15:58:26.696Z,97319.75
2023-03-29T16:00:53.253Z,97304.88
2023-03-29T16:03:19.802Z,97309.69
2023-03-29T16:05:46.332Z,97307.00
2023-03-29T16:08:12.766Z,97310.44
2023-03-29T16:10:46.488Z,97305.84
2023-03-29T16:13:12.957Z,97306.06
2023-03-29T16:15:39.431Z,97305.25
2023-03-29T16:18:05.835Z,97294.97
2023-03-29T16:20:32.309Z,97286.38
2023-03-29T16:22:58.743Z,97303.25
2023-03-29T16:25:25.200Z,97295.72
2023-03-29T16:27:51.672Z,97298.06
2023-03-29T16:30:18.841Z,97293.00
2023-03-29T16:32:45.212Z,97297.38
2023-03-29T16:35:11.720Z,97295.72
2023-03-29T16:37:38.181Z,97286.53
2023-03-29T16:40:04.659Z,97297.38
2023-03-29T16:42:31.110Z,97293.25
2023-03-29T16:44:57.517Z,97302.56
2023-03-29T16:47:23.980Z,97297.84
2023-03-29T16:49:50.710Z,97288.88
2023-03-29T16:55:15.316Z,97292.06
2023-03-29T16:57:41.783Z,97283.09
2023-03-29T17:00:08.252Z,97283.09
2023-03-29T17:02:34.751Z,97287.59
2023-03-29T17:05:01.178Z,97284.38
2023-03-29T17:07:27.594Z,97287.81
2023-03-29T17:09:54.087Z,97292.06
2023-03-29T17:12:20.640Z,97291.81
2023-03-29T17:14:47.058Z,97288.78
2023-03-29T17:17:13.520Z,97282.28
2023-03-29T17:19:40.031Z,97283.47
2023-03-29T17:22:06.573Z,97287.59
2023-03-29T17:24:33.019Z,97291.56
2023-03-29T17:26:59.490Z,97290.59
2023-03-29T17:29:25.930Z,97295.81
2023-03-29T17:31:52.397Z,97297.66
2023-03-29T17:34:18.962Z,97311.84
2023-03-29T17:36:45.370Z,97306.44
2023-03-29T17:39:19.409Z,97324.13
2023-03-29T17:41:54.723Z,97317.75
2023-03-29T17:44:21.181Z,97311.63
2023-03-29T17:46:47.648Z,97305.63
2023-03-29T17:49:14.136Z,97305.50
2023-03-29T17:51:40.489Z,97299.13
2023-03-29T17:54:06.901Z,97309.28
2023-03-29T17:56:33.313Z,97315.75
2023-03-29T17:58:59.728Z,97307.50
2023-03-29T18:01:26.343Z,97317.66
2023-03-29T18:03:53.350Z,97307.38
2023-03-29T18:06:22.703Z,97315.66
2023-03-29T18:08:49.206Z,97311.16
2023-03-29T18:11:15.635Z,97318.69
2023-03-29T18:13:42.125Z,97313.75
2023-03-29T18:16:08.715Z,97313.25
2023-03-29T18:18:35.585Z,97320.34
2023-03-29T18:21:03.083Z,97319.66
2023-03-29T18:23:29.473Z,97320.94
2023-03-29T18:25:55.910Z,97323.88
2023-03-29T18:28:22.353Z,97321.38
2023-03-29T18:30:48.779Z,97318.91
2023-03-29T18:33:15.228Z,97319.94
2023-03-29T18:35:41.718Z,97322.41
2023-03-29T18:38:08.186Z,97321.94
2023-03-29T18:40:34.571Z,97318.03
2023-03-29T18:43:01.170Z,97321.56
2023-03-29T18:45:27.849Z,97315.09
2023-03-29T18:47:54.483Z,97313.19
2023-03-29T18:50:21.029Z,97306.72
2023-03-29T18:52:54.871Z,97304.03
2023-03-29T18:55:21.349Z,97301.53
2023-03-29T18:57:47.799Z,97301.16
2023-03-29T19:00:14.272Z,97301.78
2023-03-29T19:02:40.906Z,97301.44
2023-03-29T19:05:12.378Z,97305.22
2023-03-29T19:07:38.885Z,97294.84
2023-03-29T19:10:05.352Z,97305.31
2023-03-29T19:12:31.822Z,97303.78
2023-03-29T19:14:58.262Z,97311.56
2023-03-29T19:17:24.709Z,97297.41
2023-03-29T19:19:51.264Z,97308.50
2023-03-29T19:22:18.906Z,97314.06
2023-03-29T19:24:45.384Z,97304.41
2023-03-29T19:27:12.730Z,97300.25
2023-03-29T19:29:39.234Z,97289.88
2023-03-29T19:32:05.609Z,97291.41
2023-03-29T19:34:33.897Z,97305.88
2023-03-29T19:37:00.566Z,97304.03
2023-03-29T19:39:26.951Z,97310.50
2023-03-29T19:41:53.479Z,97314.28
2023-03-29T19:44:19.996Z,97315.34
2023-03-29T19:49:38.395Z,97320.41
2023-03-29T19:52:04.859Z,97323.47
2023-03-29T19:54:31.265Z,97322.59
2023-03-29T19:56:59.952Z,97325.66
2023-03-29T19:59:26.440Z,97325.91
2023-03-29T20:01:53.012Z,97321.13
2023-03-29T20:04:19.532Z,97314.72
2023-03-29T20:06:48.606Z,97324.31
2023-03-29T20:09:15.034Z,97323.44
2023-03-29T20:11:41.522Z,97320.72
2023-03-29T20:14:07.935Z,97321.81
2023-03-29T20:16:41.943Z,97327.06
2023-03-29T20:19:08.395Z,97323.94
2023-03-29T20:21:37.087Z,97327.22
2023-03-29T20:24:17.640Z,97313.16
2023-03-29T20:26:44.097Z,97318.59
2023-03-29T20:29:10.508Z,97306.72
2023-03-29T20:31:36.992Z,97308.47
2023-03-29T20:34:03.474Z,97308.94
2023-03-29T20:36:32.335Z,97312.47
2023-03-29T20:39:01.475Z,97309.91
2023-03-29T20:41:29.006Z,97304.59
2023-03-29T20:43:55.418Z,97306.25
2023-03-29T20:46:21.880Z,97304.91
2023-03-29T20:48:48.353Z,97304.25
2023-03-29T20:51:14.868Z,97308.69
2023-03-29T20:53:41.303Z,97299.72
2023-03-29T20:56:07.807Z,97309.28
2023-03-29T20:58:34.228Z,97308.78
2023-03-29T21:01:00.797Z,97301.84
2023-03-29T21:03:27.494Z,97295.72
2023-03-29T21:05:54.006Z,97292.53
2023-03-29T21:08:20.433Z,97292.91
2023-03-29T21:10:48.186Z,97289.38
2023-03-29T21:13:14.574Z,97280.53
2023-03-29T21:15:41.911Z,97284.31
2023-03-29T21:18:11.114Z,97279.13
2023-03-29T21:20:37.567Z,97282.56
2023-03-29T21:23:04.034Z,97290.09
2023-03-29T21:25:30.462Z,97286.78
2023-03-29T21:27:56.879Z,97292.31
2023-03-29T21:30:23.220Z,97290.09
2023-03-29T21:32:49.665Z,97290.69
2023-03-29T21:35:16.218Z,97293.75
2023-03-29T21:37:42.694Z,97286.00
2023-03-29T21:40:09.054Z,97276.78
2023-03-29T21:42:36.480Z,97281.63
2023-03-29T21:45:02.980Z,97281.16
2023-03-29T21:47:29.399Z,97281.38
2023-03-29T21:49:55.845Z,97275.97
2023-03-29T21:52:22.212Z,97279.88
2023-03-29T21:54:48.582Z,97273.03
2023-03-29T21:57:15.300Z,97265.34
2023-03-29T21:59:41.790Z,97262.59
2023-03-29T22:02:08.261Z,97263.22
2023-03-29T22:04:37.244Z,97261.22
2023-03-29T22:07:04.142Z,97261.09
2023-03-29T22:09:30.532Z,97263.34
2023-03-29T22:11:56.935Z,97266.66
2023-03-29T22:14:23.336Z,97267.00
2023-03-29T22:16:49.809Z,97261.25
2023-03-29T22:19:16.234Z,97253.34
2023-03-29T22:21:42.615Z,97248.78
2023-03-29T22:24:08.945Z,97249.81
2023-03-29T22:26:35.428Z,97243.59
2023-03-29T22:29:01.846Z,97237.69
2023-03-29T22:31:28.542Z,97234.03
2023-03-29T22:33:54.962Z,97234.03
2023-03-29T22:36:21.351Z,97230.63
2023-03-29T22:38:49.103Z,97218.38
2023-03-29T22:41:15.495Z,97224.72
2023-03-29T22:43:41.928Z,97227.53
2023-03-29T22:46:11.212Z,97221.00
2023-03-29T22:48:37.623Z,97227.41
2023-03-29T22:51:04.272Z,97214.69
2023-03-29T22:53:30.725Z,97213.50
2023-03-29T22:55:57.123Z,97218.31
2023-03-29T22:58:23.512Z,97224.13
2023-03-29T23:00:50.003Z,97219.50
2023-03-29T23:03:18.646Z,97220.47
2023-03-29T23:05:45.078Z,97219.31
2023-03-29T23:08:11.577Z,97215.19
2023-03-29T23:10:40.175Z,97203.25
2023-03-29T23:13:06.610Z,97203.50
2023-03-29T23:15:32.992Z,97191.13
2023-03-29T23:18:02.424Z,97177.13
2023-03-29T23:20:28.890Z,97182.44
2023-03-29T23:22:55.282Z,97185.09
2023-03-29T23:25:21.710Z,97195.38
2023-03-29T23:27:48.164Z,97206.81
2023-03-29T23:30:14.578Z,97204.81
2023-03-29T23:32:40.994Z,97210.56
2023-03-29T23:35:07.379Z,97214.94
2023-03-29T23:37:33.749Z,97207.41
2023-03-29T23:40:00.193Z,97198.81
2023-03-29T23:42:27.230Z,97193.75
2023-03-29T23:44:53.592Z,97175.97
2023-03-29T23:47:20.071Z,97175.13
2023-03-29T23:49:46.467Z,97161.81
2023-03-29T23:52:12.806Z,97158.19
2023-03-29T23:54:40.699Z,97158.16
2023-03-29T23:57:07.257Z,97150.53
2023-03-29T23:59:38.151Z,97151.81
